Time;durP1;ratioP1;P1;durP2;ratioP2;P2;SDS_P1;SDS_P2;PMS_P1;PMS_P2;Temp;Humidity;BMP_temperature;BMP_pressure;BME280_temperature;BME280_humidity;BME280_pressure;Samples;Min_cycle;Max_cycle;Signal;HPM_P1;HPM_P2
2023/12/10 00:01:01;;;;;;;;;;;;;;;;;;5085331;28;20300;-68
2023/12/10 00:03:27;;;;;;;;;;;;;;;;;;5085680;28;19920;-68
2023/12/10 00:05:53;;;;;;;;;;;;;;;;;;5086427;28;20309;-68
2023/12/10 00:08:19;;;;;;;;;;;;;;;;;;5089439;28;19927;-68
2023/12/10 00:10:45;;;;;;;;;;;;;;;;;;5087255;28;19924;-68
2023/12/10 00:13:11;;;;;;;;;;;;;;;;;;5085306;28;19920;-68
2023/12/10 00:15:40;;;;;;;;;;;;;;;;;;5085682;28;19928;-68
2023/12/10 00:18:06;;;;;;;;;;;;;;;;;;5088134;28;19921;-68
2023/12/10 00:20:31;;;;;;;;;;;;;;;;;;5087893;28;19926;-69
2023/12/10 00:22:57;;;;;;;;;;;;;;;;;;5083066;28;20010;-68
2023/12/10 00:25:26;;;;;;;;;;;;;;;;;;5084018;28;19971;-68
2023/12/10 00:27:52;;;;;;;;;;;;;;;;;;5085381;28;20479;-68
2023/12/10 00:30:17;;;;;;;;;;;;;;;;;;5088668;28;19963;-68
2023/12/10 00:32:43;;;;;;;;;;;;;;;;;;5084450;28;19921;-68
2023/12/10 00:35:09;;;;;;;;;;;;;;;;;;5088231;28;19966;-68
2023/12/10 00:37:35;;;;;;;;;;;;;;;;;;5084997;28;19936;-68
2023/12/10 00:40:03;;;;;;;;;;;;;;;;;;5091258;28;19939;-68
2023/12/10 00:42:29;;;;;;;;;;;;;;;;;;5088023;28;20404;-68
2023/12/10 00:44:55;;;;;;;;;;;;;;;;;;5089574;28;19925;-68
2023/12/10 00:47:21;;;;;;;;;;;;;;;;;;5074099;28;19920;-68
2023/12/10 00:49:47;;;;;;;;;;;;;;;;;;5093381;28;19931;-68
2023/12/10 00:52:13;;;;;;;;;;;;;;;;;;5091092;28;19924;-68
2023/12/10 00:54:39;;;;;;;;;;;;;;;;;;5091624;28;19924;-68
2023/12/10 00:57:05;;;;;;;;;;;;;;;;;;5089550;28;19924;-68
2023/12/10 00:59:31;;;;;;;;;;;;;;;;;;5087254;28;19931;-68
2023/12/10 01:01:57;;;;;;;;;;;;;;;;;;5090686;28;19920;-68
2023/12/10 01:04:23;;;;;;;;;;;;;;;;;;5087629;28;19924;-68
2023/12/10 01:06:48;;;;;;;;;;;;;;;;;;5090280;28;20274;-68
2023/12/10 01:09:15;;;;;;;;;;;;;;;;;;5090038;28;19928;-68
2023/12/10 01:11:41;;;;;;;;;;;;;;;;;;5089385;28;20006;-68
2023/12/10 01:14:07;;;;;;;;;;;;;;;;;;5069119;28;20010;-68
2023/12/10 01:16:32;;;;;;;;;;;;;;;;;;5084909;28;19978;-68
2023/12/10 01:18:58;;;;;;;;;;;;;;;;;;5089737;28;20063;-68
2023/12/10 01:21:24;;;;;;;;;;;;;;;;;;5089390;28;20366;-68
2023/12/10 01:23:54;;;;;;;;;;;;;;;;;;5087056;28;19920;-68
2023/12/10 01:26:20;;;;;;;;;;;;;;;;;;5090792;28;19930;-68
2023/12/10 01:28:46;;;;;;;;;;;;;;;;;;5091079;28;20265;-68
2023/12/10 01:31:11;;;;;;;;;;;;;;;;;;5085053;28;20023;-68
2023/12/10 01:33:37;;;;;;;;;;;;;;;;;;5083605;28;19920;-68
2023/12/10 01:36:03;;;;;;;;;;;;;;;;;;5087649;28;19920;-68
2023/12/10 01:38:29;;;;;;;;;;;;;;;;;;5091126;28;19920;-67
2023/12/10 01:40:55;;;;;;;;;;;;;;;;;;5089750;28;19924;-68
2023/12/10 01:43:21;;;;;;;;;;;;;;;;;;5089172;28;20617;-67
2023/12/10 01:45:50;;;;;;;;;;;;;;;;;;5086338;28;20419;-67
2023/12/10 01:48:16;;;;;;;;;;;;;;;;;;5086717;28;19920;-67
2023/12/10 01:50:42;;;;;;;;;;;;;;;;;;5089133;28;20289;-67
2023/12/10 01:53:08;;;;;;;;;;;;;;;;;;5090378;28;20014;-68
2023/12/10 01:55:34;;;;;;;;;;;;;;;;;;5090843;28;19924;-67
2023/12/10 01:57:59;;;;;;;;;;;;;;;;;;5091032;28;19928;-68
2023/12/10 02:00:26;;;;;;;;;;;;;;;;;;5090829;28;19920;-68
2023/12/10 02:02:52;;;;;;;;;;;;;;;;;;5084326;28;19931;-68
2023/12/10 02:05:18;;;;;;;;;;;;;;;;;;5088434;28;23339;-68
2023/12/10 02:07:44;;;;;;;;;;;;;;;;;;5068852;28;19927;-68
2023/12/10 02:10:10;;;;;;;;;;;;;;;;;;5089768;28;19920;-68
2023/12/10 02:12:36;;;;;;;;;;;;;;;;;;5072330;28;19924;-67
2023/12/10 02:15:02;;;;;;;;;;;;;;;;;;5089652;28;19941;-68
2023/12/10 02:17:28;;;;;;;;;;;;;;;;;;5084800;28;19927;-68
2023/12/10 02:19:54;;;;;;;;;;;;;;;;;;5089972;28;20122;-67
2023/12/10 02:22:20;;;;;;;;;;;;;;;;;;5084476;28;19920;-67
2023/12/10 02:24:46;;;;;;;;;;;;;;;;;;5085986;28;19924;-68
2023/12/10 02:27:12;;;;;;;;;;;;;;;;;;5086100;28;20010;-68
2023/12/10 02:29:38;;;;;;;;;;;;;;;;;;5071440;28;20437;-67
2023/12/10 02:32:04;;;;;;;;;;;;;;;;;;5086358;28;19969;-68
2023/12/10 02:34:30;;;;;;;;;;;;;;;;;;5082333;28;19927;-68
2023/12/10 02:36:56;;;;;;;;;;;;;;;;;;5090258;28;19927;-68
2023/12/10 02:39:22;;;;;;;;;;;;;;;;;;5088554;28;19928;-68
2023/12/10 02:41:47;;;;;;;;;;;;;;;;;;5089028;28;20344;-68
2023/12/10 02:44:13;;;;;;;;;;;;;;;;;;5089078;28;20647;-68
2023/12/10 02:46:39;;;;;;;;;;;;;;;;;;5067625;28;19928;-68
2023/12/10 02:49:05;;;;;;;;;;;;;;;;;;5077867;28;19927;-68
2023/12/10 02:51:31;;;;;;;;;;;;;;;;;;5085747;28;19931;-68
2023/12/10 02:53:57;;;;;;;;;;;;;;;;;;5086475;28;19920;-68
2023/12/10 02:56:23;;;;;;;;;;;;;;;;;;5088412;28;20304;-67
2023/12/10 02:58:49;;;;;;;;;;;;;;;;;;5089784;28;19977;-68
2023/12/10 03:01:15;;;;;;;;;;;;;;;;;;5086337;28;19930;-68
2023/12/10 03:03:41;;;;;;;;;;;;;;;;;;5088196;28;20001;-68
2023/12/10 03:06:07;;;;;;;;;;;;;;;;;;5080509;28;20006;-68
2023/12/10 03:08:33;;;;;;;;;;;;;;;;;;5087276;28;19931;-67
2023/12/10 03:10:59;;;;;;;;;;;;;;;;;;5086493;28;19928;-68
2023/12/10 03:13:25;;;;;;;;;;;;;;;;;;5087649;28;19928;-68
2023/12/10 03:15:51;;;;;;;;;;;;;;;;;;5068777;28;20019;-68
2023/12/10 03:18:17;;;;;;;;;;;;;;;;;;5071591;28;19924;-68
2023/12/10 03:20:42;;;;;;;;;;;;;;;;;;5082815;28;19928;-68
2023/12/10 03:23:08;;;;;;;;;;;;;;;;;;5087120;28;19926;-68
2023/12/10 03:25:34;;;;;;;;;;;;;;;;;;5087168;28;20014;-67
2023/12/10 03:28:00;;;;;;;;;;;;;;;;;;5072184;28;19974;-68
2023/12/10 03:30:26;;;;;;;;;;;;;;;;;;5086667;28;20005;-68
2023/12/10 03:32:52;;;;;;;;;;;;;;;;;;5081453;28;20434;-68
2023/12/10 03:35:18;;;;;;;;;;;;;;;;;;5069346;28;19928;-68
2023/12/10 03:37:44;;;;;;;;;;;;;;;;;;5085828;28;19977;-67
2023/12/10 03:40:10;;;;;;;;;;;;;;;;;;5085241;28;20512;-68
2023/12/10 03:42:36;;;;;;;;;;;;;;;;;;5086895;28;19920;-68
2023/12/10 03:45:02;;;;;;;;;;;;;;;;;;5089702;28;19935;-68
2023/12/10 03:47:27;;;;;;;;;;;;;;;;;;5088157;28;19924;-68
2023/12/10 03:49:53;;;;;;;;;;;;;;;;;;5087081;28;19966;-67
2023/12/10 03:52:19;;;;;;;;;;;;;;;;;;5081396;28;20010;-68
2023/12/10 03:54:45;;;;;;;;;;;;;;;;;;5087961;28;19928;-67
2023/12/10 03:57:11;;;;;;;;;;;;;;;;;;5085750;28;19931;-68
2023/12/10 03:59:37;;;;;;;;;;;;;;;;;;5088289;28;19920;-68
2023/12/10 04:02:03;;;;;;;;;;;;;;;;;;5088247;28;19920;-68
2023/12/10 04:04:29;;;;;;;;;;;;;;;;;;5084458;28;20370;-68
2023/12/10 04:06:55;;;;;;;;;;;;;;;;;;5089069;28;19928;-68
2023/12/10 04:09:21;;;;;;;;;;;;;;;;;;5071312;28;20383;-68
2023/12/10 04:11:47;;;;;;;;;;;;;;;;;;5089140;28;20297;-68
2023/12/10 04:14:13;;;;;;;;;;;;;;;;;;5090071;28;20007;-68
2023/12/10 04:16:39;;;;;;;;;;;;;;;;;;5090049;28;20014;-68
2023/12/10 04:19:05;;;;;;;;;;;;;;;;;;5092454;28;20361;-68
2023/12/10 04:21:31;;;;;;;;;;;;;;;;;;5085944;28;20302;-68
2023/12/10 04:23:56;;;;;;;;;;;;;;;;;;5085257;28;19931;-68
2023/12/10 04:26:22;;;;;;;;;;;;;;;;;;5072384;28;20339;-68
2023/12/10 04:28:49;;;;;;;;;;;;;;;;;;5092970;28;20372;-68
2023/12/10 04:31:15;;;;;;;;;;;;;;;;;;5090057;28;19935;-68
2023/12/10 04:33:41;;;;;;;;;;;;;;;;;;5090472;28;19928;-68
2023/12/10 04:36:07;;;;;;;;;;;;;;;;;;5090766;28;19931;-68
2023/12/10 04:38:33;;;;;;;;;;;;;;;;;;5074717;28;19926;-68
2023/12/10 04:40:59;;;;;;;;;;;;;;;;;;5083064;28;19943;-68
2023/12/10 04:43:25;;;;;;;;;;;;;;;;;;5088474;28;19927;-68
2023/12/10 04:45:51;;;;;;;;;;;;;;;;;;5088868;28;19928;-68
2023/12/10 04:48:17;;;;;;;;;;;;;;;;;;5090083;28;19927;-68
2023/12/10 04:50:43;;;;;;;;;;;;;;;;;;5091719;28;19924;-68
2023/12/10 04:53:08;;;;;;;;;;;;;;;;;;5092536;28;19998;-67
2023/12/10 04:55:34;;;;;;;;;;;;;;;;;;5083016;28;19936;-68
2023/12/10 04:58:00;;;;;;;;;;;;;;;;;;5090022;28;19931;-67
2023/12/10 05:00:26;;;;;;;;;;;;;;;;;;5089382;28;20281;-67
2023/12/10 05:02:52;;;;;;;;;;;;;;;;;;5089649;28;20400;-68
2023/12/10 05:05:18;;;;;;;;;;;;;;;;;;5090885;28;19928;-68
2023/12/10 05:07:44;;;;;;;;;;;;;;;;;;5091121;28;19921;-68
2023/12/10 05:10:10;;;;;;;;;;;;;;;;;;5089017;28;19924;-68
2023/12/10 05:12:36;;;;;;;;;;;;;;;;;;5071931;28;19920;-68
2023/12/10 05:15:02;;;;;;;;;;;;;;;;;;5090279;28;19942;-68
2023/12/10 05:17:28;;;;;;;;;;;;;;;;;;5088951;28;20653;-67
2023/12/10 05:19:53;;;;;;;;;;;;;;;;;;5083786;28;20316;-68
2023/12/10 05:22:19;;;;;;;;;;;;;;;;;;5087980;28;19973;-68
2023/12/10 05:24:45;;;;;;;;;;;;;;;;;;5088946;28;19924;-67
2023/12/10 05:27:11;;;;;;;;;;;;;;;;;;5089360;28;19927;-68
2023/12/10 05:29:37;;;;;;;;;;;;;;;;;;5088997;28;19928;-70
2023/12/10 05:32:03;;;;;;;;;;;;;;;;;;5089295;28;19924;-68
2023/12/10 05:34:29;;;;;;;;;;;;;;;;;;5089830;28;19992;-68
2023/12/10 05:36:55;;;;;;;;;;;;;;;;;;5070170;28;20440;-67
2023/12/10 05:39:21;;;;;;;;;;;;;;;;;;5090593;28;19928;-68
2023/12/10 05:41:47;;;;;;;;;;;;;;;;;;5083921;28;20030;-68
2023/12/10 05:44:13;;;;;;;;;;;;;;;;;;5083743;28;19970;-67
2023/12/10 05:46:39;;;;;;;;;;;;;;;;;;5089721;28;19931;-68
2023/12/10 05:49:05;;;;;;;;;;;;;;;;;;5090475;28;20283;-67
2023/12/10 05:51:31;;;;;;;;;;;;;;;;;;5086209;28;20014;-68
2023/12/10 05:53:57;;;;;;;;;;;;;;;;;;5090569;28;19920;-68
2023/12/10 05:56:22;;;;;;;;;;;;;;;;;;5064800;22;19929;-68
2023/12/10 05:58:48;;;;;;;;;;;;;;;;;;5050449;28;19921;-68
2023/12/10 06:01:14;;;;;;;;;;;;;;;;;;5049427;28;19920;-68
2023/12/10 06:03:40;;;;;;;;;;;;;;;;;;5052153;28;20038;-68
2023/12/10 06:06:07;;;;;;;;;;;;;;;;;;5055372;28;19932;-68
2023/12/10 06:08:32;;;;;;;;;;;;;;;;;;5063341;28;19920;-68
2023/12/10 06:10:59;;;;;;;;;;;;;;;;;;5051634;28;19921;-68
2023/12/10 06:13:27;;;;;;;;;;;;;;;;;;5066957;28;19924;-68
2023/12/10 06:15:54;;;;;;;;;;;;;;;;;;5023679;28;20001;-68
2023/12/10 06:18:20;;;;;;;;;;;;;;;;;;5054539;28;20003;-68
2023/12/10 06:20:46;;;;;;;;;;;;;;;;;;5055586;28;20016;-68
2023/12/10 06:23:12;;;;;;;;;;;;;;;;;;5067505;28;19956;-68
2023/12/10 06:25:38;;;;;;;;;;;;;;;;;;5053203;28;19928;-68
2023/12/10 06:28:04;;;;;;;;;;;;;;;;;;5054547;28;19924;-68
2023/12/10 06:30:30;;;;;;;;;;;;;;;;;;5056917;28;19939;-68
2023/12/10 06:32:56;;;;;;;;;;;;;;;;;;5055074;28;19925;-68
2023/12/10 06:35:22;;;;;;;;;;;;;;;;;;5056014;28;19924;-68
2023/12/10 06:37:48;;;;;;;;;;;;;;;;;;5059592;28;19931;-68
2023/12/10 06:40:14;;;;;;;;;;;;;;;;;;5059901;28;19968;-68
2023/12/10 06:42:40;;;;;;;;;;;;;;;;;;5054459;28;19921;-68
2023/12/10 06:45:07;;;;;;;;;;;;;;;;;;5063343;28;19975;-68
2023/12/10 06:47:33;;;;;;;;;;;;;;;;;;5063816;28;19920;-68
2023/12/10 06:49:59;;;;;;;;;;;;;;;;;;5052876;28;20610;-68
2023/12/10 06:52:25;;;;;;;;;;;;;;;;;;5064754;28;19922;-68
2023/12/10 06:54:51;;;;;;;;;;;;;;;;;;5050571;28;19925;-68
2023/12/10 06:57:17;;;;;;;;;;;;;;;;;;5054682;28;19959;-68
2023/12/10 06:59:43;;;;;;;;;;;;;;;;;;5053742;28;19951;-68
2023/12/10 07:02:09;;;;;;;;;;;;;;;;;;5051349;28;19925;-68
2023/12/10 07:04:35;;;;;;;;;;;;;;;;;;5048054;28;19971;-68
2023/12/10 07:07:01;;;;;;;;;;;;;;;;;;5051238;28;20405;-68
2023/12/10 07:09:27;;;;;;;;;;;;;;;;;;5052628;28;20039;-68
2023/12/10 07:11:53;;;;;;;;;;;;;;;;;;5049229;28;19959;-68
2023/12/10 07:14:19;;;;;;;;;;;;;;;;;;5051084;28;19920;-68
2023/12/10 07:16:45;;;;;;;;;;;;;;;;;;5050950;28;19921;-68
2023/12/10 07:19:11;;;;;;;;;;;;;;;;;;5052585;28;20462;-68
2023/12/10 07:21:37;;;;;;;;;;;;;;;;;;5053037;28;19936;-68
2023/12/10 07:24:03;;;;;;;;;;;;;;;;;;5052100;28;19921;-69
2023/12/10 07:26:29;;;;;;;;;;;;;;;;;;5049950;28;20404;-68
2023/12/10 07:28:55;;;;;;;;;;;;;;;;;;5049543;28;20519;-68
2023/12/10 07:31:21;;;;;;;;;;;;;;;;;;5034364;28;19972;-68
2023/12/10 07:33:47;;;;;;;;;;;;;;;;;;5053041;28;19928;-69
2023/12/10 07:36:13;;;;;;;;;;;;;;;;;;5048208;28;19929;-68
2023/12/10 07:38:39;;;;;;;;;;;;;;;;;;5051737;28;19921;-69
2023/12/10 07:41:05;;;;;;;;;;;;;;;;;;5052223;28;19948;-68
2023/12/10 07:43:31;;;;;;;;;;;;;;;;;;5057692;28;19924;-68
2023/12/10 07:45:57;;;;;;;;;;;;;;;;;;5056608;28;19947;-68
2023/12/10 07:48:23;;;;;;;;;;;;;;;;;;5055515;28;19943;-68
2023/12/10 07:50:49;;;;;;;;;;;;;;;;;;5054429;28;19921;-68
2023/12/10 07:53:15;;;;;;;;;;;;;;;;;;5041624;28;19924;-69
2023/12/10 07:55:41;;;;;;;;;;;;;;;;;;5052817;28;19929;-68
2023/12/10 07:58:07;;;;;;;;;;;;;;;;;;5065051;28;20358;-69
2023/12/10 08:00:33;;;;;;;;;;;;;;;;;;5056959;28;20042;-69
2023/12/10 08:02:59;;;;;;;;;;;;;;;;;;5054619;28;19929;-68
2023/12/10 08:05:25;;;;;;;;;;;;;;;;;;5061126;28;19925;-69
2023/12/10 08:07:51;;;;;;;;;;;;;;;;;;5069170;28;20011;-68
2023/12/10 08:10:17;;;;;;;;;;;;;;;;;;5048993;28;19921;-68
2023/12/10 08:12:43;;;;;;;;;;;;;;;;;;5045970;28;19971;-69
2023/12/10 08:15:09;;;;;;;;;;;;;;;;;;5038914;28;19920;-68
2023/12/10 08:17:35;;;;;;;;;;;;;;;;;;5062300;28;19974;-68
2023/12/10 08:20:01;;;;;;;;;;;;;;;;;;5067116;28;19920;-68
2023/12/10 08:22:27;;;;;;;;;;;;;;;;;;5054971;28;19975;-68
2023/12/10 08:24:53;;;;;;;;;;;;;;;;;;5051053;28;19924;-68
2023/12/10 08:27:19;;;;;;;;;;;;;;;;;;5056157;28;20298;-68
2023/12/10 08:29:45;;;;;;;;;;;;;;;;;;5052546;28;19936;-69
2023/12/10 08:32:10;;;;;;;;;;;;;;;;;;5055447;28;20447;-69
2023/12/10 08:34:36;;;;;;;;;;;;;;;;;;5060660;28;20327;-69
2023/12/10 08:37:03;;;;;;;;;;;;;;;;;;5063007;28;20385;-69
2023/12/10 08:39:29;;;;;;;;;;;;;;;;;;5056858;28;19963;-69
2023/12/10 08:41:55;;;;;;;;;;;;;;;;;;5058315;28;19956;-69
2023/12/10 08:44:21;;;;;;;;;;;;;;;;;;5059046;28;19944;-69
2023/12/10 08:46:47;;;;;;;;;;;;;;;;;;5056306;28;20376;-69
2023/12/10 08:49:13;;;;;;;;;;;;;;;;;;5069501;28;19924;-69
2023/12/10 08:51:39;;;;;;;;;;;;;;;;;;5038738;28;19928;-69
2023/12/10 08:54:05;;;;;;;;;;;;;;;;;;5054439;28;19925;-68
2023/12/10 08:56:31;;;;;;;;;;;;;;;;;;5061052;28;20381;-69
2023/12/10 08:58:57;;;;;;;;;;;;;;;;;;5060434;28;20359;-69
2023/12/10 09:01:23;;;;;;;;;;;;;;;;;;5057201;28;19986;-69
2023/12/10 09:03:49;;;;;;;;;;;;;;;;;;5047994;28;19948;-69
2023/12/10 09:06:15;;;;;;;;;;;;;;;;;;5051571;28;19929;-69
2023/12/10 09:08:41;;;;;;;;;;;;;;;;;;5046671;28;19921;-68
2023/12/10 09:11:07;;;;;;;;;;;;;;;;;;5047972;28;20365;-69
2023/12/10 09:13:32;;;;;;;;;;;;;;;;;;5048076;28;19960;-69
2023/12/10 09:15:58;;;;;;;;;;;;;;;;;;5028277;28;19935;-69
2023/12/10 09:18:24;;;;;;;;;;;;;;;;;;5032641;28;19927;-69
2023/12/10 09:20:50;;;;;;;;;;;;;;;;;;5029892;28;19921;-68
2023/12/10 09:23:16;;;;;;;;;;;;;;;;;;5040119;28;19929;-68
2023/12/10 09:25:42;;;;;;;;;;;;;;;;;;5049717;28;20322;-69
2023/12/10 09:28:08;;;;;;;;;;;;;;;;;;5019580;28;19925;-68
2023/12/10 09:30:34;;;;;;;;;;;;;;;;;;5048577;28;20023;-68
2023/12/10 09:33:00;;;;;;;;;;;;;;;;;;5032162;28;20760;-69
2023/12/10 09:35:26;;;;;;;;;;;;;;;;;;5023365;28;20071;-68
2023/12/10 09:37:52;;;;;;;;;;;;;;;;;;5029300;28;19921;-69
2023/12/10 09:40:18;;;;;;;;;;;;;;;;;;5048512;28;20539;-68
2023/12/10 09:42:44;;;;;;;;;;;;;;;;;;5035997;28;20021;-68
2023/12/10 09:45:10;;;;;;;;;;;;;;;;;;5035748;28;20394;-69
2023/12/10 09:47:36;;;;;;;;;;;;;;;;;;5034084;28;20002;-69
2023/12/10 09:50:02;;;;;;;;;;;;;;;;;;5051704;28;19925;-69
2023/12/10 09:52:28;;;;;;;;;;;;;;;;;;5051758;28;20353;-68
2023/12/10 09:54:54;;;;;;;;;;;;;;;;;;5065375;28;20015;-69
2023/12/10 09:57:20;;;;;;;;;;;;;;;;;;5010073;28;19932;-69
2023/12/10 09:59:46;;;;;;;;;;;;;;;;;;5015318;28;19926;-69
2023/12/10 10:02:12;;;;;;;;;;;;;;;;;;5019042;28;19928;-69
2023/12/10 10:04:38;;;;;;;;;;;;;;;;;;5012763;28;19933;-69
2023/12/10 10:07:04;;;;;;;;;;;;;;;;;;5011109;28;19925;-69
2023/12/10 10:09:30;;;;;;;;;;;;;;;;;;5017093;28;19948;-69
2023/12/10 10:11:58;;;;;;;;;;;;;;;;;;5041108;28;20227;-68
2023/12/10 10:14:24;;;;;;;;;;;;;;;;;;5005315;28;20343;-68
2023/12/10 10:16:50;;;;;;;;;;;;;;;;;;5001433;28;20028;-69
2023/12/10 10:19:16;;;;;;;;;;;;;;;;;;5042917;28;19965;-68
2023/12/10 10:21:42;;;;;;;;;;;;;;;;;;5015442;28;19921;-69
2023/12/10 10:24:08;;;;;;;;;;;;;;;;;;5015329;28;19922;-69
2023/12/10 10:26:34;;;;;;;;;;;;;;;;;;5016309;28;19921;-69
2023/12/10 10:29:00;;;;;;;;;;;;;;;;;;5012491;28;19929;-69
2023/12/10 10:31:26;;;;;;;;;;;;;;;;;;5030438;28;20279;-68
2023/12/10 10:33:52;;;;;;;;;;;;;;;;;;5006918;28;19927;-69
2023/12/10 10:36:19;;;;;;;;;;;;;;;;;;5018749;28;20004;-69
2023/12/10 10:38:46;;;;;;;;;;;;;;;;;;5027293;28;19976;-68
2023/12/10 10:41:11;;;;;;;;;;;;;;;;;;5017857;28;20298;-69
2023/12/10 10:43:37;;;;;;;;;;;;;;;;;;5017194;28;19929;-68
2023/12/10 10:46:03;;;;;;;;;;;;;;;;;;5010143;28;19971;-69
2023/12/10 10:48:31;;;;;;;;;;;;;;;;;;5008136;28;20351;-68
2023/12/10 10:50:57;;;;;;;;;;;;;;;;;;5014924;28;19921;-68
2023/12/10 10:53:23;;;;;;;;;;;;;;;;;;5011837;28;19929;-68
2023/12/10 10:55:49;;;;;;;;;;;;;;;;;;5041639;28;19929;-69
2023/12/10 10:58:15;;;;;;;;;;;;;;;;;;5019362;28;19925;-68
2023/12/10 11:00:41;;;;;;;;;;;;;;;;;;5019202;28;20359;-68
2023/12/10 11:03:07;;;;;;;;;;;;;;;;;;5007499;28;19929;-68
2023/12/10 11:05:33;;;;;;;;;;;;;;;;;;5003069;28;20334;-68
2023/12/10 11:07:59;;;;;;;;;;;;;;;;;;5015032;28;19921;-68
2023/12/10 11:10:25;;;;;;;;;;;;;;;;;;5006479;28;19925;-68
2023/12/10 11:12:53;;;;;;;;;;;;;;;;;;5017690;28;20008;-68
2023/12/10 11:15:19;;;;;;;;;;;;;;;;;;5006376;28;20035;-69
2023/12/10 11:17:45;;;;;;;;;;;;;;;;;;5008834;28;20424;-63
2023/12/10 11:20:11;;;;;;;;;;;;;;;;;;5006257;28;20017;-67
2023/12/10 11:22:37;;;;;;;;;;;;;;;;;;5013967;28;19980;-68
2023/12/10 11:25:03;;;;;;;;;;;;;;;;;;5013753;28;19972;-67
2023/12/10 11:27:29;;;;;;;;;;;;;;;;;;5016646;28;19928;-67
2023/12/10 11:29:55;;;;;;;;;;;;;;;;;;5011553;28;20387;-68
2023/12/10 11:32:21;;;;;;;;;;;;;;;;;;5022005;28;19925;-67
2023/12/10 11:34:47;;;;;;;;;;;;;;;;;;5019950;28;20341;-67
2023/12/10 11:37:13;;;;;;;;;;;;;;;;;;5039183;28;19921;-67
2023/12/10 11:39:39;;;;;;;;;;;;;;;;;;5019556;28;20343;-67
2023/12/10 11:42:05;;;;;;;;;;;;;;;;;;5023619;28;19928;-67
2023/12/10 11:44:31;;;;;;;;;;;;;;;;;;5046755;28;19925;-67
2023/12/10 11:46:58;;;;;;;;;;;;;;;;;;5009625;28;19921;-67
2023/12/10 11:49:24;;;;;;;;;;;;;;;;;;5011532;28;20437;-67
2023/12/10 11:51:50;;;;;;;;;;;;;;;;;;5009721;28;19929;-67
2023/12/10 11:54:17;;;;;;;;;;;;;;;;;;5002002;28;19925;-67
2023/12/10 11:56:43;;;;;;;;;;;;;;;;;;5029212;28;20477;-67
2023/12/10 11:59:09;;;;;;;;;;;;;;;;;;5051190;28;19932;-67
2023/12/10 12:01:35;;;;;;;;;;;;;;;;;;5034619;28;19925;-67
2023/12/10 12:04:01;;;;;;;;;;;;;;;;;;5046702;28;19928;-67
2023/12/10 12:06:27;;;;;;;;;;;;;;;;;;5038221;28;19933;-67
2023/12/10 12:08:52;;;;;;;;;;;;;;;;;;5040791;28;19925;-68
2023/12/10 12:11:19;;;;;;;;;;;;;;;;;;5041760;28;20012;-67
2023/12/10 12:13:45;;;;;;;;;;;;;;;;;;5048408;28;20030;-68
2023/12/10 12:16:11;;;;;;;;;;;;;;;;;;5046260;28;20015;-67
2023/12/10 12:18:37;;;;;;;;;;;;;;;;;;5033526;28;20055;-67
2023/12/10 12:21:03;;;;;;;;;;;;;;;;;;5055185;28;19948;-68
2023/12/10 12:23:29;;;;;;;;;;;;;;;;;;5048705;28;20357;-68
2023/12/10 12:25:54;;;;;;;;;;;;;;;;;;5047106;28;21154;-68
2023/12/10 12:28:21;;;;;;;;;;;;;;;;;;5048387;28;20385;-68
2023/12/10 12:30:47;;;;;;;;;;;;;;;;;;5050337;28;20278;-68
2023/12/10 12:33:14;;;;;;;;;;;;;;;;;;5019397;28;19929;-68
2023/12/10 12:35:40;;;;;;;;;;;;;;;;;;5048849;28;20266;-68
2023/12/10 12:38:06;;;;;;;;;;;;;;;;;;5047845;28;19928;-68
2023/12/10 12:40:32;;;;;;;;;;;;;;;;;;5040687;28;19924;-68
2023/12/10 12:42:58;;;;;;;;;;;;;;;;;;5040729;28;21563;-67
2023/12/10 12:45:24;;;;;;;;;;;;;;;;;;5054433;28;20023;-68
2023/12/10 12:47:51;;;;;;;;;;;;;;;;;;5049620;28;20007;-68
2023/12/10 12:50:18;;;;;;;;;;;;;;;;;;5042484;28;19928;-68
2023/12/10 12:52:44;;;;;;;;;;;;;;;;;;5044415;28;19936;-68
2023/12/10 12:55:10;;;;;;;;;;;;;;;;;;5026355;28;19925;-68
2023/12/10 12:57:36;;;;;;;;;;;;;;;;;;5050100;28;19929;-67
2023/12/10 13:00:04;;;;;;;;;;;;;;;;;;5034769;28;20294;-68
2023/12/10 13:02:30;;;;;;;;;;;;;;;;;;5049660;28;19921;-68
2023/12/10 13:04:56;;;;;;;;;;;;;;;;;;5046759;28;19940;-68
2023/12/10 13:07:22;;;;;;;;;;;;;;;;;;5044879;28;19929;-68
2023/12/10 13:09:48;;;;;;;;;;;;;;;;;;5027547;28;19975;-68
2023/12/10 13:12:14;;;;;;;;;;;;;;;;;;5040449;28;19963;-67
2023/12/10 13:14:40;;;;;;;;;;;;;;;;;;5025334;28;19925;-67
2023/12/10 13:17:06;;;;;;;;;;;;;;;;;;5040742;28;19976;-67
2023/12/10 13:19:32;;;;;;;;;;;;;;;;;;5036573;28;19921;-67
2023/12/10 13:21:58;;;;;;;;;;;;;;;;;;5052287;28;20610;-67
2023/12/10 13:24:24;;;;;;;;;;;;;;;;;;5053797;28;19928;-67
2023/12/10 13:26:50;;;;;;;;;;;;;;;;;;5045886;28;19929;-67
2023/12/10 13:29:15;;;;;;;;;;;;;;;;;;5055263;28;19925;-67
2023/12/10 13:31:41;;;;;;;;;;;;;;;;;;5049596;28;19952;-67
2023/12/10 13:34:07;;;;;;;;;;;;;;;;;;5043424;28;19935;-67
2023/12/10 13:36:33;;;;;;;;;;;;;;;;;;5052569;28;19954;-67
2023/12/10 13:38:59;;;;;;;;;;;;;;;;;;5047344;28;20014;-67
2023/12/10 13:41:25;;;;;;;;;;;;;;;;;;5035014;28;19929;-67
2023/12/10 13:43:51;;;;;;;;;;;;;;;;;;5044114;28;20415;-67
2023/12/10 13:46:17;;;;;;;;;;;;;;;;;;5040088;28;19925;-67
2023/12/10 13:48:43;;;;;;;;;;;;;;;;;;5043833;28;19966;-67
2023/12/10 13:51:11;;;;;;;;;;;;;;;;;;5046795;28;20034;-67
2023/12/10 13:53:37;;;;;;;;;;;;;;;;;;5055686;28;19920;-67
2023/12/10 13:56:03;;;;;;;;;;;;;;;;;;5045374;28;19936;-67
2023/12/10 13:58:29;;;;;;;;;;;;;;;;;;5048144;28;19921;-67
2023/12/10 14:00:55;;;;;;;;;;;;;;;;;;5047030;28;19921;-67
2023/12/10 14:03:21;;;;;;;;;;;;;;;;;;5047927;28;19946;-67
2023/12/10 14:05:47;;;;;;;;;;;;;;;;;;5039767;28;20282;-67
2023/12/10 14:08:13;;;;;;;;;;;;;;;;;;5045870;28;20347;-67
2023/12/10 14:10:39;;;;;;;;;;;;;;;;;;5052709;28;19920;-67
2023/12/10 14:13:05;;;;;;;;;;;;;;;;;;5066250;28;19974;-67
2023/12/10 14:15:31;;;;;;;;;;;;;;;;;;5051841;28;19928;-67
2023/12/10 14:17:57;;;;;;;;;;;;;;;;;;5063493;28;20258;-67
2023/12/10 14:20:23;;;;;;;;;;;;;;;;;;5045147;28;20069;-67
2023/12/10 14:22:49;;;;;;;;;;;;;;;;;;5052503;28;20267;-67
2023/12/10 14:25:15;;;;;;;;;;;;;;;;;;5046289;28;19985;-67
2023/12/10 14:27:41;;;;;;;;;;;;;;;;;;5046269;28;20003;-67
2023/12/10 14:30:07;;;;;;;;;;;;;;;;;;5048769;28;19932;-67
2023/12/10 14:32:33;;;;;;;;;;;;;;;;;;5049180;28;19921;-67
2023/12/10 14:35:00;;;;;;;;;;;;;;;;;;5051320;28;20274;-67
2023/12/10 14:37:26;;;;;;;;;;;;;;;;;;5043173;28;19924;-67
2023/12/10 14:39:53;;;;;;;;;;;;;;;;;;5020435;28;19928;-67
2023/12/10 14:42:19;;;;;;;;;;;;;;;;;;5055577;28;20297;-67
2023/12/10 14:44:45;;;;;;;;;;;;;;;;;;5044383;28;19932;-67
2023/12/10 14:47:11;;;;;;;;;;;;;;;;;;5037321;28;19920;-67
2023/12/10 14:49:37;;;;;;;;;;;;;;;;;;5029986;28;19924;-67
2023/12/10 14:52:03;;;;;;;;;;;;;;;;;;5049946;28;19959;-67
2023/12/10 14:54:29;;;;;;;;;;;;;;;;;;5053602;28;20371;-67
2023/12/10 14:56:54;;;;;;;;;;;;;;;;;;5053650;28;19932;-66
2023/12/10 14:59:20;;;;;;;;;;;;;;;;;;5043903;28;19924;-67
2023/12/10 15:01:46;;;;;;;;;;;;;;;;;;5037690;28;19960;-67
2023/12/10 15:04:12;;;;;;;;;;;;;;;;;;5049595;28;20346;-67
2023/12/10 15:06:38;;;;;;;;;;;;;;;;;;5062392;28;19932;-67
2023/12/10 15:09:04;;;;;;;;;;;;;;;;;;5051159;28;19924;-67
2023/12/10 15:11:32;;;;;;;;;;;;;;;;;;5058911;28;19925;-67
2023/12/10 15:13:58;;;;;;;;;;;;;;;;;;5057492;28;19924;-67
2023/12/10 15:16:24;;;;;;;;;;;;;;;;;;5048170;28;19920;-67
2023/12/10 15:18:50;;;;;;;;;;;;;;;;;;5033124;28;19920;-67
2023/12/10 15:21:15;;;;;;;;;;;;;;;;;;5064800;28;19920;-67
2023/12/10 15:23:41;;;;;;;;;;;;;;;;;;5048429;28;19924;-67
2023/12/10 15:26:07;;;;;;;;;;;;;;;;;;5065287;28;19924;-67
2023/12/10 15:28:33;;;;;;;;;;;;;;;;;;5046556;28;19928;-67
2023/12/10 15:30:59;;;;;;;;;;;;;;;;;;5038258;28;19983;-67
2023/12/10 15:33:25;;;;;;;;;;;;;;;;;;5044449;28;20398;-67
2023/12/10 15:35:51;;;;;;;;;;;;;;;;;;5043166;28;19927;-67
2023/12/10 15:38:17;;;;;;;;;;;;;;;;;;5041065;28;19921;-67
2023/12/10 15:40:44;;;;;;;;;;;;;;;;;;5044954;28;19925;-67
2023/12/10 15:43:10;;;;;;;;;;;;;;;;;;5031145;28;19929;-67
2023/12/10 15:45:36;;;;;;;;;;;;;;;;;;5054427;28;19931;-67
2023/12/10 15:48:02;;;;;;;;;;;;;;;;;;5045833;28;20595;-67
2023/12/10 15:50:28;;;;;;;;;;;;;;;;;;5016276;28;20002;-67
2023/12/10 15:52:53;;;;;;;;;;;;;;;;;;5042681;28;19921;-67
2023/12/10 15:55:19;;;;;;;;;;;;;;;;;;5039298;28;19929;-67
2023/12/10 15:57:47;;;;;;;;;;;;;;;;;;5041098;28;19925;-67
2023/12/10 16:00:13;;;;;;;;;;;;;;;;;;5046828;28;20263;-67
2023/12/10 16:02:39;;;;;;;;;;;;;;;;;;5054286;28;19931;-67
2023/12/10 16:05:05;;;;;;;;;;;;;;;;;;5031140;28;19929;-67
2023/12/10 16:07:31;;;;;;;;;;;;;;;;;;5051992;28;19936;-67
2023/12/10 16:09:57;;;;;;;;;;;;;;;;;;5057929;22;19925;31
2023/12/10 16:12:23;;;;;;;;;;;;;;;;;;5083630;28;19935;-67
2023/12/10 16:14:48;;;;;;;;;;;;;;;;;;5089913;28;19927;-67
2023/12/10 16:17:15;;;;;;;;;;;;;;;;;;5095954;28;20372;-67
2023/12/10 16:19:41;;;;;;;;;;;;;;;;;;5090565;28;19924;-67
2023/12/10 16:22:07;;;;;;;;;;;;;;;;;;5078097;28;19931;-67
2023/12/10 16:24:34;;;;;;;;;;;;;;;;;;5086147;28;19924;-67
2023/12/10 16:27:00;;;;;;;;;;;;;;;;;;5087586;28;19962;-67
2023/12/10 16:29:26;;;;;;;;;;;;;;;;;;5091157;28;20005;-68
2023/12/10 16:31:51;;;;;;;;;;;;;;;;;;5093819;28;20296;-67
2023/12/10 16:34:17;;;;;;;;;;;;;;;;;;5086032;28;19928;-68
2023/12/10 16:36:43;;;;;;;;;;;;;;;;;;5074893;28;19924;-68